createdAt,value
2022-07-26T00:00:26.040Z,30.62
2022-07-26T00:02:53.296Z,30.64
2022-07-26T00:05:22.142Z,30.63
2022-07-26T00:07:49.311Z,30.64
2022-07-26T00:10:16.979Z,30.65
2022-07-26T00:12:44.197Z,30.66
2022-07-26T00:15:12.047Z,30.65
2022-07-26T00:17:39.235Z,30.70
2022-07-26T00:20:07.093Z,30.69
2022-07-26T00:22:35.677Z,30.71
2022-07-26T00:25:05.235Z,30.72
2022-07-26T00:27:33.097Z,30.72
2022-07-26T00:30:00.263Z,30.73
2022-07-26T00:32:27.435Z,30.72
2022-07-26T00:34:54.574Z,30.71
2022-07-26T00:37:21.734Z,30.72
2022-07-26T00:39:50.391Z,30.71
2022-07-26T00:42:17.642Z,30.73
2022-07-26T00:44:45.969Z,30.75
2022-07-26T00:47:13.912Z,30.73
2022-07-26T00:49:41.592Z,30.68
2022-07-26T00:52:10.169Z,30.64
2022-07-26T00:54:39.175Z,30.65
2022-07-26T00:57:07.748Z,30.62
2022-07-26T00:59:35.162Z,30.62
2022-07-26T01:02:02.528Z,30.62
2022-07-26T01:04:30.277Z,30.64
2022-07-26T01:06:57.496Z,30.64
2022-07-26T01:09:24.948Z,30.65
2022-07-26T01:11:52.102Z,30.67
2022-07-26T01:14:22.174Z,30.71
2022-07-26T01:16:49.943Z,30.75
2022-07-26T01:19:17.542Z,30.72
2022-07-26T01:21:46.109Z,30.72
2022-07-26T01:24:13.317Z,30.75
2022-07-26T01:26:40.502Z,30.73
2022-07-26T01:29:07.949Z,30.75
2022-07-26T01:31:35.263Z,30.73
2022-07-26T01:34:03.043Z,30.73
2022-07-26T01:36:30.203Z,30.73
2022-07-26T01:38:58.740Z,30.73
2022-07-26T01:41:37.510Z,30.72
2022-07-26T01:44:07.017Z,30.68
2022-07-26T01:46:35.155Z,30.66
2022-07-26T01:49:02.347Z,30.65
2022-07-26T01:51:29.562Z,30.69
2022-07-26T01:53:58.088Z,30.67
2022-07-26T01:56:25.311Z,30.67
2022-07-26T01:58:52.757Z,30.72
2022-07-26T02:01:39.179Z,30.68
2022-07-26T02:04:07.896Z,30.69
2022-07-26T02:06:35.377Z,30.70
2022-07-26T02:09:07.746Z,30.71
2022-07-26T02:11:39.886Z,30.77
2022-07-26T02:14:07.317Z,30.78
2022-07-26T02:16:34.726Z,30.82
2022-07-26T02:19:01.855Z,30.79
2022-07-26T02:21:29.012Z,30.76
2022-07-26T02:23:56.179Z,30.78
2022-07-26T02:26:24.709Z,30.76
2022-07-26T02:28:51.854Z,30.73
2022-07-26T02:31:19.084Z,30.76
2022-07-26T02:33:47.944Z,30.76
2022-07-26T02:36:15.077Z,30.75
2022-07-26T02:38:42.248Z,30.70
2022-07-26T02:41:09.412Z,30.68
2022-07-26T02:43:38.740Z,30.69
2022-07-26T02:46:06.107Z,30.68
2022-07-26T02:48:33.358Z,30.69
2022-07-26T02:51:00.582Z,30.70
2022-07-26T02:53:27.776Z,30.69
2022-07-26T02:55:54.928Z,30.72
2022-07-26T02:58:22.104Z,30.71
2022-07-26T03:00:50.727Z,30.76
2022-07-26T03:03:18.026Z,30.77
2022-07-26T03:05:45.246Z,30.74
2022-07-26T03:08:12.418Z,30.76
2022-07-26T03:10:40.551Z,30.76
2022-07-26T03:13:07.714Z,30.73
2022-07-26T03:15:34.954Z,30.77
2022-07-26T03:18:03.864Z,30.72
2022-07-26T03:20:31.041Z,30.76
2022-07-26T03:22:58.240Z,30.79
2022-07-26T03:25:25.431Z,30.76
2022-07-26T03:27:54.777Z,30.79
2022-07-26T03:30:24.760Z,30.77
2022-07-26T03:32:52.836Z,30.72
2022-07-26T03:35:21.650Z,30.66
2022-07-26T03:37:48.810Z,30.68
2022-07-26T03:40:17.109Z,30.72
2022-07-26T03:42:45.258Z,30.70
2022-07-26T03:45:12.899Z,30.69
2022-07-26T03:47:40.381Z,30.68
2022-07-26T03:50:08.466Z,30.69
2022-07-26T03:52:36.970Z,30.72
2022-07-26T03:55:04.864Z,30.72
2022-07-26T03:57:32.135Z,30.77
2022-07-26T03:59:59.289Z,30.82
2022-07-26T04:02:26.475Z,30.79
2022-07-26T04:04:53.641Z,30.77
2022-07-26T04:07:20.789Z,30.79
2022-07-26T04:09:50.018Z,30.76
2022-07-26T04:12:17.174Z,30.80
2022-07-26T04:14:44.307Z,30.81
2022-07-26T04:17:11.520Z,30.66
2022-07-26T04:19:39.355Z,30.60
2022-07-26T04:22:07.130Z,30.58
2022-07-26T04:24:34.278Z,30.51
2022-07-26T04:27:02.804Z,30.46
2022-07-26T04:29:29.960Z,30.44
2022-07-26T04:31:57.105Z,30.45
2022-07-26T04:34:24.281Z,30.51
2022-07-26T04:36:51.431Z,30.53
2022-07-26T04:39:18.621Z,30.53
2022-07-26T04:41:45.822Z,30.55
2022-07-26T04:44:14.328Z,30.60
2022-07-26T04:46:44.954Z,30.60
2022-07-26T04:49:13.167Z,30.62
2022-07-26T04:51:40.391Z,30.65
2022-07-26T04:54:07.880Z,30.70
2022-07-26T04:56:35.286Z,30.70
2022-07-26T04:59:02.483Z,30.68
2022-07-26T05:01:31.035Z,30.69
2022-07-26T05:03:58.284Z,30.68
2022-07-26T05:06:25.436Z,30.69
2022-07-26T05:08:52.594Z,30.69
2022-07-26T05:11:19.759Z,30.69
2022-07-26T05:13:46.888Z,30.68
2022-07-26T05:16:14.060Z,30.62
2022-07-26T05:18:48.843Z,30.60
2022-07-26T05:21:18.074Z,30.57
2022-07-26T05:23:45.315Z,30.59
2022-07-26T05:26:12.590Z,30.60
2022-07-26T05:28:40.291Z,30.62
2022-07-26T05:31:08.174Z,30.60
2022-07-26T05:33:35.379Z,30.62
2022-07-26T05:36:04.663Z,30.63
2022-07-26T05:38:31.800Z,30.64
2022-07-26T05:40:58.974Z,30.67
2022-07-26T05:43:26.103Z,30.73
2022-07-26T05:45:53.298Z,30.71
2022-07-26T05:48:23.497Z,30.74
2022-07-26T05:50:50.763Z,30.74
2022-07-26T05:53:19.311Z,30.73
2022-07-26T05:55:46.543Z,30.74
2022-07-26T05:58:13.702Z,30.74
2022-07-26T06:00:43.183Z,30.72
2022-07-26T06:03:12.539Z,30.73
2022-07-26T06:05:39.661Z,30.69
2022-07-26T06:08:06.835Z,30.69
2022-07-26T06:10:35.411Z,30.67
2022-07-26T06:13:02.575Z,30.66
2022-07-26T06:15:29.765Z,30.69
2022-07-26T06:17:56.971Z,30.67
2022-07-26T06:20:24.289Z,30.70
2022-07-26T06:22:51.428Z,30.71
2022-07-26T06:25:18.840Z,30.70
2022-07-26T06:27:47.324Z,30.70
2022-07-26T06:30:14.887Z,30.75
2022-07-26T06:32:42.207Z,30.74
2022-07-26T06:35:09.504Z,30.76
2022-07-26T06:37:36.980Z,30.76
2022-07-26T06:40:05.607Z,30.75
2022-07-26T06:42:32.787Z,30.77
2022-07-26T06:45:02.030Z,30.75
2022-07-26T06:47:29.433Z,30.75
2022-07-26T06:49:57.192Z,30.76
2022-07-26T06:52:24.336Z,30.75
2022-07-26T06:54:51.501Z,30.72
2022-07-26T06:57:18.735Z,30.65
2022-07-26T06:59:45.931Z,30.68
2022-07-26T07:02:14.434Z,30.69
2022-07-26T07:04:41.657Z,30.70
2022-07-26T07:07:08.873Z,30.70
2022-07-26T07:09:36.413Z,30.70
2022-07-26T07:12:09.693Z,30.72
2022-07-26T07:14:37.971Z,30.78
2022-07-26T07:17:10.549Z,30.77
2022-07-26T07:19:42.589Z,30.76
2022-07-26T07:22:09.746Z,30.81
2022-07-26T07:24:37.168Z,30.82
2022-07-26T07:27:05.187Z,30.83
2022-07-26T07:29:34.108Z,30.79
2022-07-26T07:32:03.569Z,30.77
2022-07-26T07:34:30.978Z,30.78
2022-07-26T07:36:59.529Z,30.77
2022-07-26T07:39:34.901Z,30.78
2022-07-26T07:42:06.248Z,30.76
2022-07-26T07:44:33.394Z,30.71
2022-07-26T07:47:00.618Z,30.69
2022-07-26T07:49:27.894Z,30.72
2022-07-26T07:51:55.122Z,30.71
2022-07-26T07:54:24.133Z,30.76
2022-07-26T07:56:52.355Z,30.72
2022-07-26T07:59:19.516Z,30.78
2022-07-26T08:01:50.333Z,30.79
2022-07-26T08:04:17.598Z,30.81
2022-07-26T08:06:50.253Z,30.83
2022-07-26T08:09:19.235Z,30.80
2022-07-26T08:11:50.935Z,30.81
2022-07-26T08:14:18.598Z,30.83
2022-07-26T08:16:45.964Z,30.83
2022-07-26T08:19:13.601Z,30.84
2022-07-26T08:21:42.957Z,30.83
2022-07-26T08:24:10.131Z,30.77
2022-07-26T08:26:37.561Z,30.79
2022-07-26T08:29:06.136Z,30.78
2022-07-26T08:31:33.314Z,30.76
2022-07-26T08:34:00.501Z,30.73
2022-07-26T08:36:32.196Z,30.70
2022-07-26T08:39:00.189Z,30.72
2022-07-26T08:41:27.535Z,30.72
2022-07-26T08:43:54.781Z,30.74
2022-07-26T08:46:26.905Z,30.80
2022-07-26T08:48:55.063Z,30.85
2022-07-26T08:51:23.999Z,30.80
2022-07-26T08:53:54.120Z,30.76
2022-07-26T08:56:21.275Z,30.77
2022-07-26T08:58:48.446Z,30.79
2022-07-26T09:01:15.904Z,30.83
2022-07-26T09:03:45.582Z,30.87
2022-07-26T09:06:17.346Z,30.84
2022-07-26T09:08:46.227Z,30.87
2022-07-26T09:11:27.424Z,30.85
2022-07-26T09:13:57.226Z,30.78
2022-07-26T09:16:25.379Z,30.78
2022-07-26T09:18:54.523Z,30.79
2022-07-26T09:21:29.730Z,30.78
2022-07-26T09:23:58.449Z,30.75
2022-07-26T09:26:26.813Z,30.74
2022-07-26T09:29:06.684Z,30.70
2022-07-26T09:31:34.696Z,30.73
2022-07-26T09:34:04.471Z,30.73
2022-07-26T09:36:32.410Z,30.79
2022-07-26T09:39:01.883Z,30.79
2022-07-26T09:41:31.669Z,30.77
2022-07-26T09:44:01.182Z,30.75
2022-07-26T09:46:29.554Z,30.80
2022-07-26T09:49:13.882Z,30.86
2022-07-26T09:51:44.133Z,30.84
2022-07-26T09:54:17.093Z,30.83
2022-07-26T09:56:47.168Z,30.76
2022-07-26T09:59:15.948Z,30.80
2022-07-26T10:01:43.785Z,30.81
2022-07-26T10:04:11.958Z,30.82
2022-07-26T10:06:39.869Z,30.80
2022-07-26T10:09:09.161Z,30.81
2022-07-26T10:11:41.313Z,30.80
2022-07-26T10:14:40.683Z,30.74
2022-07-26T10:17:44.152Z,30.72
2022-07-26T10:20:51.363Z,30.72
2022-07-26T10:23:38.863Z,30.71
2022-07-26T10:26:08.275Z,30.73
2022-07-26T10:28:38.376Z,30.73
2022-07-26T10:31:28.284Z,30.79
2022-07-26T10:33:56.632Z,30.83
2022-07-26T10:36:27.923Z,30.80
2022-07-26T10:38:59.820Z,30.84
2022-07-26T10:41:35.487Z,30.84
2022-07-26T10:44:27.650Z,30.84
2022-07-26T10:47:11.562Z,30.84
2022-07-26T10:49:39.324Z,30.85
2022-07-26T10:52:10.959Z,30.88
2022-07-26T10:55:10.715Z,30.85
2022-07-26T10:57:39.198Z,30.83
2022-07-26T11:00:24.355Z,30.81
2022-07-26T11:02:56.849Z,30.79
2022-07-26T11:05:28.902Z,30.75
2022-07-26T11:08:00.921Z,30.73
2022-07-26T11:10:30.633Z,30.73
2022-07-26T11:13:08.651Z,30.74
2022-07-26T11:15:37.264Z,30.72
2022-07-26T11:18:16.266Z,30.77
2022-07-26T11:20:45.801Z,30.73
2022-07-26T11:23:33.334Z,30.79
2022-07-26T11:26:08.721Z,30.84
2022-07-26T11:28:51.177Z,30.84
2022-07-26T11:31:20.690Z,30.88
2022-07-26T11:33:50.708Z,30.88
2022-07-26T11:36:18.729Z,30.90
2022-07-26T11:38:50.253Z,30.89
2022-07-26T11:41:20.618Z,30.87
2022-07-26T11:44:02.777Z,30.82
2022-07-26T11:46:38.923Z,30.84
2022-07-26T11:49:14.256Z,30.85
2022-07-26T11:51:49.064Z,30.83
2022-07-26T11:54:17.659Z,30.82
2022-07-26T11:56:55.388Z,30.76
2022-07-26T11:59:24.538Z,30.80
2022-07-26T12:01:52.710Z,30.75
2022-07-26T12:04:22.468Z,30.77
2022-07-26T12:06:50.406Z,30.80
2022-07-26T12:09:33.240Z,30.83
2022-07-26T12:12:01.066Z,30.76
2022-07-26T12:14:29.927Z,30.75
2022-07-26T12:16:58.215Z,30.77
2022-07-26T12:19:28.698Z,30.79
2022-07-26T12:21:58.685Z,30.87
2022-07-26T12:24:44.845Z,30.87
2022-07-26T12:27:14.837Z,30.87
2022-07-26T12:29:44.744Z,30.88
2022-07-26T12:32:14.617Z,30.88
2022-07-26T12:34:54.455Z,30.88
2022-07-26T12:37:25.211Z,30.88
2022-07-26T12:40:06.367Z,30.85
2022-07-26T12:42:35.276Z,30.86
2022-07-26T12:45:03.856Z,30.85
2022-07-26T12:47:31.050Z,30.80
2022-07-26T12:49:58.365Z,30.76
2022-07-26T12:52:25.584Z,30.81
2022-07-26T12:54:53.278Z,30.82
2022-07-26T12:57:21.931Z,30.81
2022-07-26T12:59:49.441Z,30.80
2022-07-26T13:02:18.050Z,30.81
2022-07-26T13:04:46.452Z,30.83
2022-07-26T13:07:14.047Z,30.80
2022-07-26T13:09:41.544Z,30.85
2022-07-26T13:12:10.110Z,30.87
2022-07-26T13:14:39.047Z,30.99
2022-07-26T13:17:07.539Z,30.89
2022-07-26T13:19:36.140Z,30.94
2022-07-26T13:22:05.279Z,30.87
2022-07-26T13:24:34.187Z,30.81
2022-07-26T13:27:02.261Z,30.72
2022-07-26T13:29:29.666Z,30.78
2022-07-26T13:31:59.439Z,30.79
2022-07-26T13:34:30.485Z,30.65
2022-07-26T13:37:02.343Z,30.57
2022-07-26T13:39:35.762Z,30.64
2022-07-26T13:42:03.544Z,30.70
2022-07-26T13:44:30.764Z,30.85
2022-07-26T13:46:59.298Z,30.88
2022-07-26T13:49:26.562Z,30.84
2022-07-26T13:51:53.767Z,30.70
2022-07-26T13:54:23.156Z,30.67
2022-07-26T13:56:50.593Z,30.71
2022-07-26T13:59:17.889Z,30.68
2022-07-26T14:01:45.576Z,30.66
2022-07-26T14:04:15.617Z,30.58
2022-07-26T14:06:43.303Z,30.51
2022-07-26T14:09:11.404Z,30.54
2022-07-26T14:11:39.063Z,30.50
2022-07-26T14:14:06.726Z,30.60
2022-07-26T14:16:34.244Z,30.72
2022-07-26T14:19:02.101Z,30.80
2022-07-26T14:21:46.872Z,30.84
2022-07-26T14:24:20.901Z,30.69
2022-07-26T14:26:48.238Z,30.72
2022-07-26T14:29:15.407Z,30.69
2022-07-26T14:31:42.614Z,30.74
2022-07-26T14:34:10.083Z,30.71
2022-07-26T14:36:38.807Z,30.71
2022-07-26T14:39:05.957Z,30.89
2022-07-26T14:41:33.175Z,30.86
2022-07-26T14:44:00.434Z,30.64
2022-07-26T14:46:27.885Z,30.51
2022-07-26T14:48:55.292Z,30.57
2022-07-26T14:51:22.537Z,30.52
2022-07-26T14:53:51.046Z,30.49
2022-07-26T14:56:18.249Z,30.35
2022-07-26T14:58:45.406Z,30.46
2022-07-26T15:01:12.836Z,30.54
2022-07-26T15:03:40.106Z,30.55
2022-07-26T15:06:07.440Z,30.39
2022-07-26T15:08:34.595Z,30.33
2022-07-26T15:11:03.262Z,30.39
2022-07-26T15:13:30.430Z,30.46
2022-07-26T15:15:57.569Z,30.38
2022-07-26T15:18:25.078Z,30.31
2022-07-26T15:20:52.834Z,30.32
2022-07-26T15:23:20.071Z,30.21
2022-07-26T15:25:47.278Z,30.10
2022-07-26T15:28:16.501Z,29.97
2022-07-26T15:30:43.934Z,30.05
2022-07-26T15:33:11.179Z,29.98
2022-07-26T15:35:38.430Z,29.98
2022-07-26T15:38:05.670Z,30.11
2022-07-26T15:40:32.954Z,30.12
2022-07-26T15:43:00.126Z,30.21
2022-07-26T15:45:28.933Z,30.35
2022-07-26T15:48:05.715Z,30.48
2022-07-26T15:50:43.100Z,30.60
2022-07-26T15:53:10.753Z,30.58
2022-07-26T15:55:37.956Z,30.72
2022-07-26T15:58:05.122Z,30.72
2022-07-26T16:00:33.678Z,30.69
2022-07-26T16:03:00.939Z,30.61
2022-07-26T16:05:28.104Z,30.61
2022-07-26T16:07:55.356Z,30.70
2022-07-26T16:10:22.574Z,30.62
2022-07-26T16:12:49.868Z,30.58
2022-07-26T16:15:17.092Z,30.59
2022-07-26T16:17:45.699Z,30.56
2022-07-26T16:20:12.876Z,30.57
2022-07-26T16:22:40.070Z,30.53
2022-07-26T16:25:08.690Z,30.52
2022-07-26T16:27:35.907Z,30.54
2022-07-26T16:30:03.855Z,30.51
2022-07-26T16:32:31.160Z,30.55
2022-07-26T16:34:59.727Z,30.52
2022-07-26T16:37:26.981Z,30.57
2022-07-26T16:39:54.136Z,30.57
2022-07-26T16:42:21.458Z,30.60
2022-07-26T16:44:48.643Z,30.62
2022-07-26T16:47:15.970Z,30.66
2022-07-26T16:49:43.222Z,30.67
2022-07-26T16:52:11.804Z,30.61
2022-07-26T16:54:38.998Z,30.63
2022-07-26T16:57:06.202Z,30.57
2022-07-26T16:59:33.503Z,30.57
2022-07-26T17:02:02.926Z,30.51
2022-07-26T17:04:30.442Z,30.46
2022-07-26T17:07:23.227Z,30.45
2022-07-26T17:09:46.291Z,30.43
2022-07-26T17:12:13.480Z,30.43
2022-07-26T17:14:40.652Z,30.43
2022-07-26T17:17:07.897Z,30.43
2022-07-26T17:19:35.085Z,30.46
2022-07-26T17:22:02.281Z,30.41
2022-07-26T17:24:29.498Z,30.37
2022-07-26T17:26:57.988Z,30.46
2022-07-26T17:29:25.190Z,30.43
2022-07-26T17:31:52.398Z,30.46
2022-07-26T17:34:19.590Z,30.42
2022-07-26T17:36:46.767Z,30.43
2022-07-26T17:39:14.958Z,30.42
2022-07-26T17:41:42.955Z,30.43
2022-07-26T17:44:16.259Z,30.41
2022-07-26T17:46:43.598Z,30.41
2022-07-26T17:49:11.291Z,30.39
2022-07-26T17:51:39.074Z,30.41
2022-07-26T17:54:06.456Z,30.35
2022-07-26T17:56:34.256Z,30.32
2022-07-26T17:59:01.559Z,30.27
2022-07-26T18:01:30.275Z,30.26
2022-07-26T18:03:57.512Z,30.29
2022-07-26T18:06:24.710Z,30.26
2022-07-26T18:08:51.905Z,30.27
2022-07-26T18:11:19.085Z,30.27
2022-07-26T18:13:46.258Z,30.29
2022-07-26T18:16:13.603Z,30.28
2022-07-26T18:18:42.240Z,30.33
2022-07-26T18:21:09.528Z,30.38
2022-07-26T18:23:36.879Z,30.40
2022-07-26T18:26:04.159Z,30.42
2022-07-26T18:28:31.366Z,30.48
2022-07-26T18:30:58.587Z,30.46
2022-07-26T18:33:26.440Z,30.46
2022-07-26T18:35:55.178Z,30.48
2022-07-26T18:38:22.586Z,30.47
2022-07-26T18:40:49.825Z,30.52
2022-07-26T18:43:16.991Z,30.48
2022-07-26T18:45:44.195Z,30.46
2022-07-26T18:48:11.396Z,30.39
2022-07-26T18:50:38.787Z,30.41
2022-07-26T18:53:08.296Z,30.40
2022-07-26T18:55:35.855Z,30.38
2022-07-26T18:58:06.673Z,30.39
2022-07-26T19:00:34.460Z,30.41
2022-07-26T19:03:01.765Z,30.43
2022-07-26T19:05:32.510Z,30.46
2022-07-26T19:08:03.137Z,30.49
2022-07-26T19:10:31.758Z,30.51
2022-07-26T19:12:59.000Z,30.53
2022-07-26T19:15:26.278Z,30.54
2022-07-26T19:17:53.467Z,30.58
2022-07-26T19:20:20.759Z,30.58
2022-07-26T19:22:48.104Z,30.60
2022-07-26T19:25:15.336Z,30.60
2022-07-26T19:27:44.458Z,30.62
2022-07-26T19:30:13.237Z,30.62
2022-07-26T19:32:40.463Z,30.61
2022-07-26T19:35:08.933Z,30.56
2022-07-26T19:37:36.458Z,30.52
2022-07-26T19:40:04.591Z,30.47
2022-07-26T19:42:31.940Z,30.46
2022-07-26T19:45:00.730Z,30.45
2022-07-26T19:47:28.053Z,30.45
2022-07-26T19:49:55.865Z,30.44
2022-07-26T19:52:23.185Z,30.45
2022-07-26T19:54:51.729Z,30.47
2022-07-26T19:57:19.063Z,30.48
2022-07-26T19:59:47.138Z,30.49
2022-07-26T20:02:15.872Z,30.59
2022-07-26T20:04:46.121Z,30.59
2022-07-26T20:07:13.786Z,30.61
2022-07-26T20:09:40.938Z,30.61
2022-07-26T20:12:08.311Z,30.64
2022-07-26T20:14:35.514Z,30.64
2022-07-26T20:17:02.870Z,30.61
2022-07-26T20:19:42.094Z,30.68
2022-07-26T20:22:10.461Z,30.60
2022-07-26T20:24:37.859Z,30.53
2022-07-26T20:27:05.728Z,30.51
2022-07-26T20:29:33.089Z,30.48
2022-07-26T20:32:00.299Z,30.38
2022-07-26T20:34:27.502Z,30.39
2022-07-26T20:36:56.104Z,30.38
2022-07-26T20:39:23.342Z,30.41
2022-07-26T20:41:50.480Z,30.36
2022-07-26T20:44:19.745Z,30.34
2022-07-26T20:46:49.548Z,30.36
2022-07-26T20:49:17.405Z,30.33
2022-07-26T20:51:45.384Z,30.35
2022-07-26T20:54:13.903Z,30.37
2022-07-26T20:56:41.154Z,30.40
2022-07-26T20:59:08.520Z,30.39
2022-07-26T21:01:36.093Z,30.39
2022-07-26T21:04:03.681Z,30.36
2022-07-26T21:06:30.983Z,30.39
2022-07-26T21:08:58.135Z,30.39
2022-07-26T21:11:26.679Z,30.40
2022-07-26T21:13:53.898Z,30.38
2022-07-26T21:16:21.104Z,30.38
2022-07-26T21:18:53.104Z,30.35
2022-07-26T21:21:21.456Z,30.28
2022-07-26T21:23:48.719Z,30.28
2022-07-26T21:26:15.909Z,30.22
2022-07-26T21:28:44.472Z,30.24
2022-07-26T21:31:11.626Z,30.25
2022-07-26T21:33:38.783Z,30.28
2022-07-26T21:36:06.400Z,30.28
2022-07-26T21:38:33.775Z,30.27
2022-07-26T21:41:00.994Z,30.26
2022-07-26T21:43:28.135Z,30.31
2022-07-26T21:45:56.859Z,30.35
2022-07-26T21:48:24.514Z,30.34
2022-07-26T21:50:51.709Z,30.35
2022-07-26T21:53:18.961Z,30.37
2022-07-26T21:55:46.215Z,30.36
2022-07-26T21:58:13.418Z,30.35
2022-07-26T22:00:40.680Z,30.34
2022-07-26T22:03:09.299Z,30.36
2022-07-26T22:05:36.479Z,30.35
2022-07-26T22:08:07.724Z,30.35
2022-07-26T22:10:35.459Z,30.30
2022-07-26T22:13:12.462Z,30.23
2022-07-26T22:15:39.700Z,30.21
2022-07-26T22:18:08.825Z,30.25
2022-07-26T22:20:39.077Z,30.25
2022-07-26T22:23:09.554Z,30.25
2022-07-26T22:25:37.992Z,30.25
2022-07-26T22:28:06.310Z,30.28
2022-07-26T22:30:33.545Z,30.28
2022-07-26T22:33:02.615Z,30.29
2022-07-26T22:35:33.961Z,30.31
2022-07-26T22:38:06.981Z,30.31
2022-07-26T22:40:34.331Z,30.32
2022-07-26T22:43:01.748Z,30.30
2022-07-26T22:45:30.452Z,30.32
2022-07-26T22:47:58.235Z,30.32
2022-07-26T22:50:25.558Z,30.33
2022-07-26T22:52:52.792Z,30.31
2022-07-26T22:55:21.532Z,30.32
2022-07-26T22:57:48.991Z,30.31
2022-07-26T23:00:18.109Z,30.31
2022-07-26T23:02:45.454Z,30.23
2022-07-26T23:05:14.990Z,30.23
2022-07-26T23:07:42.186Z,30.24
2022-07-26T23:10:13.221Z,30.20
2022-07-26T23:12:42.308Z,30.25
2022-07-26T23:15:10.272Z,30.30
2022-07-26T23:17:37.842Z,30.25
2022-07-26T23:20:06.842Z,30.30
2022-07-26T23:22:34.052Z,30.28
2022-07-26T23:25:01.504Z,30.25
2022-07-26T23:27:28.713Z,30.31
2022-07-26T23:29:57.280Z,30.31
2022-07-26T23:32:24.454Z,30.32
2022-07-26T23:34:51.642Z,30.32
2022-07-26T23:37:18.801Z,30.30
2022-07-26T23:39:46.024Z,30.29
2022-07-26T23:42:13.207Z,30.28
2022-07-26T23:44:40.391Z,30.29
2022-07-26T23:47:09.036Z,30.29
2022-07-26T23:49:36.247Z,30.29
2022-07-26T23:52:03.759Z,30.26
2022-07-26T23:54:31.063Z,30.20
2022-07-26T23:56:58.238Z,30.21
2022-07-26T23:59:25.420Z,30.21
